createdAt,value
2023-02-02T00:02:05.909Z,1
2023-02-02T00:12:05.798Z,1
2023-02-02T00:22:05.924Z,1
2023-02-02T00:32:05.995Z,1
2023-02-02T00:42:05.893Z,1
2023-02-02T00:52:05.961Z,1
2023-02-02T01:02:05.947Z,1
2023-02-02T01:12:05.997Z,1
2023-02-02T01:22:06.030Z,1
2023-02-02T01:32:05.956Z,1
2023-02-02T01:42:06.062Z,1
2023-02-02T01:52:05.952Z,1
2023-02-02T02:02:06.099Z,1
2023-02-02T02:12:05.938Z,1
2023-02-02T02:22:06.066Z,1
2023-02-02T02:32:05.937Z,1
2023-02-02T02:42:06.066Z,1
2023-02-02T02:52:06.145Z,1
2023-02-02T03:02:06.037Z,1
2023-02-02T03:12:06.118Z,1
2023-02-02T03:22:06.051Z,1
2023-02-02T03:32:06.152Z,1
2023-02-02T03:42:06.062Z,1
2023-02-02T03:52:06.139Z,1
2023-02-02T04:02:06.042Z,1
2023-02-02T04:12:06.118Z,1
2023-02-02T04:22:06.059Z,1
2023-02-02T04:32:06.127Z,1
2023-02-02T04:42:06.267Z,1
2023-02-02T04:52:06.140Z,1
2023-02-02T05:02:06.232Z,1
2023-02-02T05:12:06.122Z,1
2023-02-02T05:22:06.235Z,1
2023-02-02T05:32:06.122Z,1
2023-02-02T05:42:06.223Z,1
2023-02-02T05:52:06.111Z,1
2023-02-02T06:02:06.253Z,1
2023-02-02T06:12:06.306Z,1
2023-02-02T06:22:06.216Z,1
2023-02-02T06:32:06.366Z,1
2023-02-02T06:42:20.245Z,1
2023-02-02T06:52:06.293Z,1
2023-02-02T07:02:06.218Z,1
2023-02-02T07:12:06.307Z,1
2023-02-02T07:22:06.410Z,1
2023-02-02T07:32:06.269Z,5
2023-02-02T07:42:06.395Z,19
2023-02-02T07:52:06.262Z,40
2023-02-02T08:02:06.487Z,57
2023-02-02T08:12:06.302Z,71
2023-02-02T08:22:06.460Z,81
2023-02-02T08:32:06.329Z,82
2023-02-02T08:42:06.453Z,77
2023-02-02T08:52:06.297Z,82
2023-02-02T09:02:06.451Z,86
2023-02-02T09:12:06.312Z,87
2023-02-02T09:22:06.429Z,90
2023-02-02T09:32:06.523Z,91
2023-02-02T09:42:06.431Z,90
2023-02-02T09:52:06.520Z,92
2023-02-02T10:02:06.436Z,93
2023-02-02T10:12:06.516Z,93
2023-02-02T10:22:06.519Z,94
2023-02-02T10:32:06.620Z,94
2023-02-02T10:42:06.749Z,94
2023-02-02T10:52:06.556Z,94
2023-02-02T11:02:19.118Z,94
2023-02-02T11:12:06.574Z,95
2023-02-02T11:22:06.649Z,95
2023-02-02T11:32:06.552Z,94
2023-02-02T11:42:06.662Z,94
2023-02-02T11:52:06.582Z,94
2023-02-02T12:02:06.702Z,94
2023-02-02T12:12:06.530Z,95
2023-02-02T12:22:06.646Z,95
2023-02-02T12:32:06.544Z,95
2023-02-02T12:42:06.661Z,95
2023-02-02T12:52:06.719Z,95
2023-02-02T13:02:06.644Z,93
2023-02-02T13:12:06.689Z,94
2023-02-02T13:22:06.598Z,93
2023-02-02T13:32:06.696Z,93
2023-02-02T13:42:06.625Z,93
2023-02-02T13:52:06.684Z,93
2023-02-02T14:02:06.824Z,94
2023-02-02T14:12:06.685Z,93
2023-02-02T14:22:06.814Z,93
2023-02-02T14:32:06.707Z,93
2023-02-02T14:42:06.806Z,93
2023-02-02T14:52:06.689Z,92
2023-02-02T15:02:06.839Z,91
2023-02-02T15:12:06.702Z,90
2023-02-02T15:22:06.824Z,90
2023-02-02T15:32:06.844Z,87
2023-02-02T15:42:06.765Z,85
2023-02-02T15:52:06.874Z,84
2023-02-02T16:02:06.856Z,83
2023-02-02T16:12:06.879Z,77
2023-02-02T16:22:06.890Z,72
2023-02-02T16:32:06.964Z,65
2023-02-02T16:42:06.851Z,57
2023-02-02T16:52:06.934Z,43
2023-02-02T17:02:07.036Z,27
2023-02-02T17:12:07.003Z,11
2023-02-02T17:22:06.964Z,3
2023-02-02T17:32:07.008Z,2
2023-02-02T17:42:06.893Z,1
2023-02-02T17:52:06.957Z,1
2023-02-02T18:02:06.918Z,1
2023-02-02T18:12:07.009Z,1
2023-02-02T18:22:06.955Z,1
2023-02-02T18:32:06.967Z,1
2023-02-02T18:42:07.084Z,1
2023-02-02T18:52:07.038Z,1
2023-02-02T19:02:07.209Z,1
2023-02-02T19:12:06.986Z,1
2023-02-02T19:22:07.120Z,1
2023-02-02T19:32:07.225Z,1
2023-02-02T19:42:07.139Z,1
2023-02-02T19:52:06.994Z,1
2023-02-02T20:02:07.104Z,1
2023-02-02T20:12:07.134Z,1
2023-02-02T20:22:07.049Z,1
2023-02-02T20:32:07.160Z,1
2023-02-02T20:42:07.074Z,1
2023-02-02T20:52:07.136Z,1
2023-02-02T21:02:07.065Z,1
2023-02-02T21:12:07.135Z,1
2023-02-02T21:22:07.233Z,1
2023-02-02T21:32:07.239Z,1
2023-02-02T21:42:07.264Z,1
2023-02-02T21:52:07.107Z,1
2023-02-02T22:02:07.231Z,1
2023-02-02T22:12:07.120Z,1
2023-02-02T22:22:07.252Z,1
2023-02-02T22:32:07.113Z,1
2023-02-02T22:42:07.228Z,1
2023-02-02T22:52:07.296Z,1
2023-02-02T23:02:07.211Z,1
2023-02-02T23:12:07.284Z,1
2023-02-02T23:22:07.233Z,1
2023-02-02T23:32:07.381Z,1
2023-02-02T23:42:07.202Z,1
2023-02-02T23:52:07.279Z,1
